sensor_id;sensor_type;location;lat;lon;timestamp;P1;durP1;ratioP1;P2;durP2;ratioP2
66633;SDS011;53546;52.184;5.596;2023-02-14T00:00:38;11.85;;;9.45;;
66633;SDS011;53546;52.184;5.596;2023-02-14T00:03:03;13.38;;;9.85;;
66633;SDS011;53546;52.184;5.596;2023-02-14T00:05:28;11.70;;;9.95;;
66633;SDS011;53546;52.184;5.596;2023-02-14T00:07:54;12.02;;;9.20;;
66633;SDS011;53546;52.184;5.596;2023-02-14T00:10:19;12.68;;;9.90;;
66633;SDS011;53546;52.184;5.596;2023-02-14T00:12:45;10.55;;;9.38;;
66633;SDS011;53546;52.184;5.596;2023-02-14T00:15:10;14.25;;;10.23;;
66633;SDS011;53546;52.184;5.596;2023-02-14T00:17:49;11.45;;;9.35;;
66633;SDS011;53546;52.184;5.596;2023-02-14T00:20:15;14.63;;;9.10;;
66633;SDS011;53546;52.184;5.596;2023-02-14T00:22:41;13.18;;;9.85;;
66633;SDS011;53546;52.184;5.596;2023-02-14T00:25:06;11.65;;;9.05;;
66633;SDS011;53546;52.184;5.596;2023-02-14T00:27:32;12.00;;;9.32;;
66633;SDS011;53546;52.184;5.596;2023-02-14T00:29:57;13.55;;;9.98;;
66633;SDS011;53546;52.184;5.596;2023-02-14T00:32:26;11.75;;;9.90;;
66633;SDS011;53546;52.184;5.596;2023-02-14T00:34:52;12.38;;;9.82;;
66633;SDS011;53546;52.184;5.596;2023-02-14T00:37:17;12.98;;;9.85;;
66633;SDS011;53546;52.184;5.596;2023-02-14T00:39:42;13.10;;;9.82;;
66633;SDS011;53546;52.184;5.596;2023-02-14T00:42:08;12.32;;;9.57;;
66633;SDS011;53546;52.184;5.596;2023-02-14T00:44:33;13.07;;;9.88;;
66633;SDS011;53546;52.184;5.596;2023-02-14T00:46:59;11.50;;;9.30;;
66633;SDS011;53546;52.184;5.596;2023-02-14T00:49:24;12.38;;;9.90;;
66633;SDS011;53546;52.184;5.596;2023-02-14T00:51:49;12.80;;;9.93;;
66633;SDS011;53546;52.184;5.596;2023-02-14T00:54:15;13.20;;;9.65;;
66633;SDS011;53546;52.184;5.596;2023-02-14T00:56:40;11.75;;;9.13;;
66633;SDS011;53546;52.184;5.596;2023-02-14T00:59:05;13.73;;;9.55;;
66633;SDS011;53546;52.184;5.596;2023-02-14T01:01:31;13.15;;;9.70;;
66633;SDS011;53546;52.184;5.596;2023-02-14T01:03:56;12.38;;;9.77;;
66633;SDS011;53546;52.184;5.596;2023-02-14T01:06:23;11.88;;;9.43;;
66633;SDS011;53546;52.184;5.596;2023-02-14T01:08:48;10.63;;;8.88;;
66633;SDS011;53546;52.184;5.596;2023-02-14T01:11:18;11.68;;;9.35;;
66633;SDS011;53546;52.184;5.596;2023-02-14T01:13:45;11.15;;;9.30;;
66633;SDS011;53546;52.184;5.596;2023-02-14T01:16:12;12.23;;;9.80;;
66633;SDS011;53546;52.184;5.596;2023-02-14T01:18:39;11.00;;;9.25;;
66633;SDS011;53546;52.184;5.596;2023-02-14T01:21:13;9.98;;;8.68;;
66633;SDS011;53546;52.184;5.596;2023-02-14T01:23:38;10.85;;;8.27;;
66633;SDS011;53546;52.184;5.596;2023-02-14T01:26:05;13.18;;;9.02;;
66633;SDS011;53546;52.184;5.596;2023-02-14T01:28:31;12.25;;;9.02;;
66633;SDS011;53546;52.184;5.596;2023-02-14T01:30:56;15.18;;;9.45;;
66633;SDS011;53546;52.184;5.596;2023-02-14T01:33:22;9.77;;;8.07;;
66633;SDS011;53546;52.184;5.596;2023-02-14T01:35:47;11.13;;;8.57;;
66633;SDS011;53546;52.184;5.596;2023-02-14T01:38:13;11.15;;;8.85;;
66633;SDS011;53546;52.184;5.596;2023-02-14T01:40:44;11.13;;;8.45;;
66633;SDS011;53546;52.184;5.596;2023-02-14T01:43:16;10.10;;;8.10;;
66633;SDS011;53546;52.184;5.596;2023-02-14T01:45:41;9.90;;;8.13;;
66633;SDS011;53546;52.184;5.596;2023-02-14T01:48:06;9.65;;;8.15;;
66633;SDS011;53546;52.184;5.596;2023-02-14T01:50:33;9.07;;;7.78;;
66633;SDS011;53546;52.184;5.596;2023-02-14T01:53:01;10.38;;;8.32;;
66633;SDS011;53546;52.184;5.596;2023-02-14T01:55:29;11.10;;;8.85;;
66633;SDS011;53546;52.184;5.596;2023-02-14T01:58:17;9.85;;;8.10;;
66633;SDS011;53546;52.184;5.596;2023-02-14T02:00:45;10.15;;;7.85;;
66633;SDS011;53546;52.184;5.596;2023-02-14T02:03:33;9.85;;;7.75;;
66633;SDS011;53546;52.184;5.596;2023-02-14T02:08:33;9.65;;;7.63;;
66633;SDS011;53546;52.184;5.596;2023-02-14T02:11:01;9.18;;;7.80;;
66633;SDS011;53546;52.184;5.596;2023-02-14T02:13:27;9.60;;;8.30;;
66633;SDS011;53546;52.184;5.596;2023-02-14T02:15:56;9.25;;;7.88;;
66633;SDS011;53546;52.184;5.596;2023-02-14T02:27:18;8.13;;;7.10;;
66633;SDS011;53546;52.184;5.596;2023-02-14T02:35:09;8.43;;;7.35;;
66633;SDS011;53546;52.184;5.596;2023-02-14T02:49:12;6.95;;;6.25;;
66633;SDS011;53546;52.184;5.596;2023-02-14T02:52:12;7.53;;;6.32;;
66633;SDS011;53546;52.184;5.596;2023-02-14T02:54:52;8.38;;;6.53;;
66633;SDS011;53546;52.184;5.596;2023-02-14T02:57:24;7.47;;;6.05;;
66633;SDS011;53546;52.184;5.596;2023-02-14T02:59:52;7.45;;;6.20;;
66633;SDS011;53546;52.184;5.596;2023-02-14T03:02:27;7.30;;;6.20;;
66633;SDS011;53546;52.184;5.596;2023-02-14T03:04:56;9.57;;;6.57;;
66633;SDS011;53546;52.184;5.596;2023-02-14T03:21:59;7.20;;;5.80;;
66633;SDS011;53546;52.184;5.596;2023-02-14T03:27:05;6.25;;;5.57;;
66633;SDS011;53546;52.184;5.596;2023-02-14T03:35:08;6.35;;;5.43;;
66633;SDS011;53546;52.184;5.596;2023-02-14T03:37:50;6.10;;;5.30;;
66633;SDS011;53546;52.184;5.596;2023-02-14T03:40:29;6.60;;;5.57;;
66633;SDS011;53546;52.184;5.596;2023-02-14T03:43:00;7.15;;;4.75;;
66633;SDS011;53546;52.184;5.596;2023-02-14T03:45:39;5.90;;;5.22;;
66633;SDS011;53546;52.184;5.596;2023-02-14T03:48:07;6.07;;;5.32;;
66633;SDS011;53546;52.184;5.596;2023-02-14T03:50:35;6.05;;;4.90;;
66633;SDS011;53546;52.184;5.596;2023-02-14T03:53:02;5.65;;;4.72;;
66633;SDS011;53546;52.184;5.596;2023-02-14T03:55:52;5.25;;;4.75;;
66633;SDS011;53546;52.184;5.596;2023-02-14T03:58:18;6.00;;;5.03;;
66633;SDS011;53546;52.184;5.596;2023-02-14T04:00:48;7.63;;;4.90;;
66633;SDS011;53546;52.184;5.596;2023-02-14T04:03:14;5.63;;;4.97;;
66633;SDS011;53546;52.184;5.596;2023-02-14T04:05:42;5.57;;;4.97;;
66633;SDS011;53546;52.184;5.596;2023-02-14T04:08:19;5.38;;;4.43;;
66633;SDS011;53546;52.184;5.596;2023-02-14T04:10:46;6.03;;;4.60;;
66633;SDS011;53546;52.184;5.596;2023-02-14T04:13:11;5.68;;;5.05;;
66633;SDS011;53546;52.184;5.596;2023-02-14T04:15:37;6.07;;;4.75;;
66633;SDS011;53546;52.184;5.596;2023-02-14T04:18:02;5.50;;;4.70;;
66633;SDS011;53546;52.184;5.596;2023-02-14T04:20:46;5.93;;;4.70;;
66633;SDS011;53546;52.184;5.596;2023-02-14T04:23:11;5.85;;;4.68;;
66633;SDS011;53546;52.184;5.596;2023-02-14T04:25:37;5.70;;;4.45;;
66633;SDS011;53546;52.184;5.596;2023-02-14T04:28:04;5.00;;;4.50;;
66633;SDS011;53546;52.184;5.596;2023-02-14T04:30:29;5.40;;;4.80;;
66633;SDS011;53546;52.184;5.596;2023-02-14T04:32:55;5.88;;;4.85;;
66633;SDS011;53546;52.184;5.596;2023-02-14T04:35:20;4.80;;;4.30;;
66633;SDS011;53546;52.184;5.596;2023-02-14T04:37:45;5.50;;;4.50;;
66633;SDS011;53546;52.184;5.596;2023-02-14T04:40:11;5.32;;;4.45;;
66633;SDS011;53546;52.184;5.596;2023-02-14T04:42:40;5.22;;;4.07;;
66633;SDS011;53546;52.184;5.596;2023-02-14T04:45:06;5.45;;;4.63;;
66633;SDS011;53546;52.184;5.596;2023-02-14T04:47:31;5.78;;;4.65;;
66633;SDS011;53546;52.184;5.596;2023-02-14T04:49:57;5.40;;;4.10;;
66633;SDS011;53546;52.184;5.596;2023-02-14T04:52:22;4.53;;;3.92;;
66633;SDS011;53546;52.184;5.596;2023-02-14T04:54:48;4.40;;;3.97;;
66633;SDS011;53546;52.184;5.596;2023-02-14T04:57:13;4.50;;;4.10;;
66633;SDS011;53546;52.184;5.596;2023-02-14T04:59:38;5.47;;;4.55;;
66633;SDS011;53546;52.184;5.596;2023-02-14T05:02:04;5.00;;;3.90;;
66633;SDS011;53546;52.184;5.596;2023-02-14T05:04:29;5.18;;;4.10;;
66633;SDS011;53546;52.184;5.596;2023-02-14T05:06:54;4.32;;;3.90;;
66633;SDS011;53546;52.184;5.596;2023-02-14T05:09:20;5.82;;;3.90;;
66633;SDS011;53546;52.184;5.596;2023-02-14T05:11:45;4.85;;;4.00;;
66633;SDS011;53546;52.184;5.596;2023-02-14T05:14:11;4.97;;;4.07;;
66633;SDS011;53546;52.184;5.596;2023-02-14T05:16:37;8.05;;;4.30;;
66633;SDS011;53546;52.184;5.596;2023-02-14T05:19:03;5.47;;;3.97;;
66633;SDS011;53546;52.184;5.596;2023-02-14T05:21:28;7.13;;;4.32;;
66633;SDS011;53546;52.184;5.596;2023-02-14T05:23:57;5.55;;;4.03;;
66633;SDS011;53546;52.184;5.596;2023-02-14T05:26:25;5.28;;;4.00;;
66633;SDS011;53546;52.184;5.596;2023-02-14T05:28:51;5.45;;;3.78;;
66633;SDS011;53546;52.184;5.596;2023-02-14T05:31:16;5.95;;;3.65;;
66633;SDS011;53546;52.184;5.596;2023-02-14T05:33:41;6.03;;;4.03;;
66633;SDS011;53546;52.184;5.596;2023-02-14T05:36:07;9.98;;;4.22;;
66633;SDS011;53546;52.184;5.596;2023-02-14T05:38:32;11.00;;;4.53;;
66633;SDS011;53546;52.184;5.596;2023-02-14T05:40:59;7.22;;;4.63;;
66633;SDS011;53546;52.184;5.596;2023-02-14T05:43:24;5.68;;;3.95;;
66633;SDS011;53546;52.184;5.596;2023-02-14T05:45:50;6.10;;;4.13;;
66633;SDS011;53546;52.184;5.596;2023-02-14T05:48:16;5.90;;;4.05;;
66633;SDS011;53546;52.184;5.596;2023-02-14T05:50:42;5.47;;;4.10;;
66633;SDS011;53546;52.184;5.596;2023-02-14T05:53:09;8.25;;;4.10;;
66633;SDS011;53546;52.184;5.596;2023-02-14T05:55:34;10.93;;;5.75;;
66633;SDS011;53546;52.184;5.596;2023-02-14T05:58:00;18.38;;;6.38;;
66633;SDS011;53546;52.184;5.596;2023-02-14T06:00:26;20.70;;;7.00;;
66633;SDS011;53546;52.184;5.596;2023-02-14T06:02:51;18.13;;;5.60;;
66633;SDS011;53546;52.184;5.596;2023-02-14T06:05:17;14.48;;;5.57;;
66633;SDS011;53546;52.184;5.596;2023-02-14T06:07:44;16.40;;;5.55;;
66633;SDS011;53546;52.184;5.596;2023-02-14T06:10:15;10.18;;;4.25;;
66633;SDS011;53546;52.184;5.596;2023-02-14T06:12:41;9.30;;;4.68;;
66633;SDS011;53546;52.184;5.596;2023-02-14T06:15:07;9.55;;;4.50;;
66633;SDS011;53546;52.184;5.596;2023-02-14T06:17:32;7.75;;;4.25;;
66633;SDS011;53546;52.184;5.596;2023-02-14T06:19:57;11.13;;;4.57;;
66633;SDS011;53546;52.184;5.596;2023-02-14T06:22:23;7.20;;;4.28;;
66633;SDS011;53546;52.184;5.596;2023-02-14T06:24:48;6.45;;;4.20;;
66633;SDS011;53546;52.184;5.596;2023-02-14T06:27:13;7.40;;;4.60;;
66633;SDS011;53546;52.184;5.596;2023-02-14T06:29:39;8.15;;;4.45;;
66633;SDS011;53546;52.184;5.596;2023-02-14T06:32:04;5.43;;;4.18;;
66633;SDS011;53546;52.184;5.596;2023-02-14T06:34:31;9.63;;;4.45;;
66633;SDS011;53546;52.184;5.596;2023-02-14T06:36:57;5.32;;;3.83;;
66633;SDS011;53546;52.184;5.596;2023-02-14T06:39:22;8.57;;;4.15;;
66633;SDS011;53546;52.184;5.596;2023-02-14T06:41:48;12.95;;;4.63;;
66633;SDS011;53546;52.184;5.596;2023-02-14T06:44:13;6.95;;;4.03;;
66633;SDS011;53546;52.184;5.596;2023-02-14T06:46:39;5.28;;;4.00;;
66633;SDS011;53546;52.184;5.596;2023-02-14T06:49:04;5.45;;;4.20;;
66633;SDS011;53546;52.184;5.596;2023-02-14T06:51:29;4.65;;;3.65;;
66633;SDS011;53546;52.184;5.596;2023-02-14T06:53:55;7.53;;;3.80;;
66633;SDS011;53546;52.184;5.596;2023-02-14T06:56:20;5.65;;;4.20;;
66633;SDS011;53546;52.184;5.596;2023-02-14T06:58:46;5.28;;;4.50;;
66633;SDS011;53546;52.184;5.596;2023-02-14T07:01:11;5.60;;;4.40;;
66633;SDS011;53546;52.184;5.596;2023-02-14T07:03:37;7.03;;;3.63;;
66633;SDS011;53546;52.184;5.596;2023-02-14T07:06:02;7.25;;;4.07;;
66633;SDS011;53546;52.184;5.596;2023-02-14T07:08:28;4.53;;;3.67;;
66633;SDS011;53546;52.184;5.596;2023-02-14T07:10:56;7.13;;;4.00;;
66633;SDS011;53546;52.184;5.596;2023-02-14T07:13:22;5.45;;;4.00;;
66633;SDS011;53546;52.184;5.596;2023-02-14T07:15:48;6.53;;;3.45;;
66633;SDS011;53546;52.184;5.596;2023-02-14T07:18:13;4.80;;;3.88;;
66633;SDS011;53546;52.184;5.596;2023-02-14T07:20:39;4.85;;;3.55;;
66633;SDS011;53546;52.184;5.596;2023-02-14T07:23:04;8.18;;;4.22;;
66633;SDS011;53546;52.184;5.596;2023-02-14T07:25:30;6.03;;;4.07;;
66633;SDS011;53546;52.184;5.596;2023-02-14T07:27:55;7.30;;;3.63;;
66633;SDS011;53546;52.184;5.596;2023-02-14T07:30:21;6.13;;;3.65;;
66633;SDS011;53546;52.184;5.596;2023-02-14T07:32:46;6.68;;;3.90;;
66633;SDS011;53546;52.184;5.596;2023-02-14T07:35:11;6.50;;;3.70;;
66633;SDS011;53546;52.184;5.596;2023-02-14T07:37:37;6.03;;;4.07;;
66633;SDS011;53546;52.184;5.596;2023-02-14T07:40:03;5.80;;;4.18;;
66633;SDS011;53546;52.184;5.596;2023-02-14T07:42:29;6.55;;;3.78;;
66633;SDS011;53546;52.184;5.596;2023-02-14T07:44:54;5.03;;;3.90;;
66633;SDS011;53546;52.184;5.596;2023-02-14T07:47:20;5.55;;;4.00;;
66633;SDS011;53546;52.184;5.596;2023-02-14T07:49:45;5.80;;;3.85;;
66633;SDS011;53546;52.184;5.596;2023-02-14T07:52:10;6.32;;;3.88;;
66633;SDS011;53546;52.184;5.596;2023-02-14T07:54:36;7.10;;;4.07;;
66633;SDS011;53546;52.184;5.596;2023-02-14T07:57:03;5.30;;;4.22;;
66633;SDS011;53546;52.184;5.596;2023-02-14T07:59:29;4.63;;;3.95;;
66633;SDS011;53546;52.184;5.596;2023-02-14T08:01:54;8.65;;;4.75;;
66633;SDS011;53546;52.184;5.596;2023-02-14T08:04:20;4.80;;;3.97;;
66633;SDS011;53546;52.184;5.596;2023-02-14T08:06:49;6.75;;;4.25;;
66633;SDS011;53546;52.184;5.596;2023-02-14T08:09:15;5.72;;;4.38;;
66633;SDS011;53546;52.184;5.596;2023-02-14T08:11:48;5.40;;;4.10;;
66633;SDS011;53546;52.184;5.596;2023-02-14T08:14:34;4.28;;;3.88;;
66633;SDS011;53546;52.184;5.596;2023-02-14T08:17:00;5.82;;;3.97;;
66633;SDS011;53546;52.184;5.596;2023-02-14T08:19:26;4.88;;;4.00;;
66633;SDS011;53546;52.184;5.596;2023-02-14T08:21:51;5.13;;;4.38;;
66633;SDS011;53546;52.184;5.596;2023-02-14T08:24:16;5.40;;;4.28;;
66633;SDS011;53546;52.184;5.596;2023-02-14T08:26:42;6.85;;;4.45;;
66633;SDS011;53546;52.184;5.596;2023-02-14T08:29:07;5.03;;;4.18;;
66633;SDS011;53546;52.184;5.596;2023-02-14T08:31:33;7.88;;;4.43;;
66633;SDS011;53546;52.184;5.596;2023-02-14T08:33:58;6.45;;;4.25;;
66633;SDS011;53546;52.184;5.596;2023-02-14T08:36:23;5.22;;;3.95;;
66633;SDS011;53546;52.184;5.596;2023-02-14T08:38:49;4.88;;;4.03;;
66633;SDS011;53546;52.184;5.596;2023-02-14T08:41:15;8.13;;;4.22;;
66633;SDS011;53546;52.184;5.596;2023-02-14T08:43:41;4.63;;;4.00;;
66633;SDS011;53546;52.184;5.596;2023-02-14T08:46:07;5.63;;;4.00;;
66633;SDS011;53546;52.184;5.596;2023-02-14T08:48:33;5.70;;;4.03;;
66633;SDS011;53546;52.184;5.596;2023-02-14T08:51:03;4.90;;;4.30;;
66633;SDS011;53546;52.184;5.596;2023-02-14T08:53:32;7.53;;;4.70;;
66633;SDS011;53546;52.184;5.596;2023-02-14T08:56:02;4.40;;;3.92;;
66633;SDS011;53546;52.184;5.596;2023-02-14T08:58:30;5.90;;;4.28;;
66633;SDS011;53546;52.184;5.596;2023-02-14T09:00:56;5.18;;;3.63;;
66633;SDS011;53546;52.184;5.596;2023-02-14T09:03:22;5.18;;;4.07;;
66633;SDS011;53546;52.184;5.596;2023-02-14T09:05:47;5.45;;;3.53;;
66633;SDS011;53546;52.184;5.596;2023-02-14T09:08:12;5.00;;;3.90;;
66633;SDS011;53546;52.184;5.596;2023-02-14T09:10:38;4.82;;;4.00;;
66633;SDS011;53546;52.184;5.596;2023-02-14T09:13:03;4.93;;;3.90;;
66633;SDS011;53546;52.184;5.596;2023-02-14T09:15:29;5.18;;;4.28;;
66633;SDS011;53546;52.184;5.596;2023-02-14T09:17:54;7.18;;;4.57;;
66633;SDS011;53546;52.184;5.596;2023-02-14T09:20:20;5.25;;;4.32;;
66633;SDS011;53546;52.184;5.596;2023-02-14T09:22:45;6.32;;;4.75;;
66633;SDS011;53546;52.184;5.596;2023-02-14T09:25:11;6.82;;;4.20;;
66633;SDS011;53546;52.184;5.596;2023-02-14T09:27:37;5.05;;;4.10;;
66633;SDS011;53546;52.184;5.596;2023-02-14T09:30:03;5.80;;;4.18;;
66633;SDS011;53546;52.184;5.596;2023-02-14T09:32:30;7.13;;;4.35;;
66633;SDS011;53546;52.184;5.596;2023-02-14T09:34:55;5.60;;;4.35;;
66633;SDS011;53546;52.184;5.596;2023-02-14T09:37:39;4.63;;;3.95;;
66633;SDS011;53546;52.184;5.596;2023-02-14T09:40:05;8.65;;;4.65;;
66633;SDS011;53546;52.184;5.596;2023-02-14T09:45:19;4.97;;;4.50;;
66633;SDS011;53546;52.184;5.596;2023-02-14T09:47:48;8.95;;;5.40;;
66633;SDS011;53546;52.184;5.596;2023-02-14T09:53:27;6.05;;;4.65;;
66633;SDS011;53546;52.184;5.596;2023-02-14T09:56:55;8.23;;;5.18;;
66633;SDS011;53546;52.184;5.596;2023-02-14T10:01:45;4.95;;;4.30;;
66633;SDS011;53546;52.184;5.596;2023-02-14T10:04:25;5.15;;;4.32;;
66633;SDS011;53546;52.184;5.596;2023-02-14T10:07:25;7.32;;;4.32;;
66633;SDS011;53546;52.184;5.596;2023-02-14T10:15:26;5.85;;;4.43;;
66633;SDS011;53546;52.184;5.596;2023-02-14T10:17:54;7.75;;;4.82;;
66633;SDS011;53546;52.184;5.596;2023-02-14T10:20:27;5.75;;;4.55;;
66633;SDS011;53546;52.184;5.596;2023-02-14T10:22:58;5.40;;;4.60;;
66633;SDS011;53546;52.184;5.596;2023-02-14T10:25:45;6.90;;;4.80;;
66633;SDS011;53546;52.184;5.596;2023-02-14T10:28:14;7.93;;;5.32;;
66633;SDS011;53546;52.184;5.596;2023-02-14T10:30:43;8.52;;;5.50;;
66633;SDS011;53546;52.184;5.596;2023-02-14T10:33:16;6.45;;;5.07;;
66633;SDS011;53546;52.184;5.596;2023-02-14T10:35:45;6.22;;;5.07;;
66633;SDS011;53546;52.184;5.596;2023-02-14T10:44:22;6.95;;;5.00;;
66633;SDS011;53546;52.184;5.596;2023-02-14T10:47:03;5.85;;;4.97;;
66633;SDS011;53546;52.184;5.596;2023-02-14T10:52:47;6.00;;;4.65;;
66633;SDS011;53546;52.184;5.596;2023-02-14T10:55:27;6.90;;;5.07;;
66633;SDS011;53546;52.184;5.596;2023-02-14T10:58:03;6.32;;;4.93;;
66633;SDS011;53546;52.184;5.596;2023-02-14T11:00:34;7.43;;;5.22;;
66633;SDS011;53546;52.184;5.596;2023-02-14T11:03:03;6.70;;;4.72;;
66633;SDS011;53546;52.184;5.596;2023-02-14T11:05:33;6.88;;;4.93;;
66633;SDS011;53546;52.184;5.596;2023-02-14T11:07:59;6.47;;;5.00;;
66633;SDS011;53546;52.184;5.596;2023-02-14T11:10:26;7.35;;;4.97;;
66633;SDS011;53546;52.184;5.596;2023-02-14T11:12:54;5.57;;;4.72;;
66633;SDS011;53546;52.184;5.596;2023-02-14T11:15:22;5.45;;;4.80;;
66633;SDS011;53546;52.184;5.596;2023-02-14T11:21:01;5.53;;;4.55;;
66633;SDS011;53546;52.184;5.596;2023-02-14T11:23:33;6.85;;;4.40;;
66633;SDS011;53546;52.184;5.596;2023-02-14T11:26:00;6.18;;;4.50;;
66633;SDS011;53546;52.184;5.596;2023-02-14T11:28:26;5.90;;;4.65;;
66633;SDS011;53546;52.184;5.596;2023-02-14T11:30:51;4.65;;;4.18;;
66633;SDS011;53546;52.184;5.596;2023-02-14T11:35:54;6.22;;;4.65;;
66633;SDS011;53546;52.184;5.596;2023-02-14T11:38:41;6.18;;;4.72;;
66633;SDS011;53546;52.184;5.596;2023-02-14T11:41:07;5.70;;;4.57;;
66633;SDS011;53546;52.184;5.596;2023-02-14T11:43:35;5.70;;;4.63;;
66633;SDS011;53546;52.184;5.596;2023-02-14T11:48:59;5.32;;;4.43;;
66633;SDS011;53546;52.184;5.596;2023-02-14T11:51:35;5.45;;;4.22;;
66633;SDS011;53546;52.184;5.596;2023-02-14T11:54:04;5.82;;;4.28;;
66633;SDS011;53546;52.184;5.596;2023-02-14T12:01:52;5.68;;;4.00;;
66633;SDS011;53546;52.184;5.596;2023-02-14T12:04:22;5.38;;;4.40;;
66633;SDS011;53546;52.184;5.596;2023-02-14T12:12:48;4.05;;;3.53;;
66633;SDS011;53546;52.184;5.596;2023-02-14T12:20:58;4.10;;;3.45;;
66633;SDS011;53546;52.184;5.596;2023-02-14T12:23:41;5.72;;;3.70;;
66633;SDS011;53546;52.184;5.596;2023-02-14T12:26:46;6.45;;;4.00;;
66633;SDS011;53546;52.184;5.596;2023-02-14T12:31:46;4.07;;;3.50;;
66633;SDS011;53546;52.184;5.596;2023-02-14T12:34:14;6.70;;;3.63;;
66633;SDS011;53546;52.184;5.596;2023-02-14T12:39:33;3.95;;;3.38;;
66633;SDS011;53546;52.184;5.596;2023-02-14T12:49:47;6.10;;;3.45;;
66633;SDS011;53546;52.184;5.596;2023-02-14T12:58:04;4.38;;;3.30;;
66633;SDS011;53546;52.184;5.596;2023-02-14T13:06:38;5.18;;;3.25;;
66633;SDS011;53546;52.184;5.596;2023-02-14T13:17:19;3.63;;;3.25;;
66633;SDS011;53546;52.184;5.596;2023-02-14T13:22:34;6.15;;;3.40;;
66633;SDS011;53546;52.184;5.596;2023-02-14T13:25:02;4.43;;;3.55;;
66633;SDS011;53546;52.184;5.596;2023-02-14T13:27:31;6.22;;;3.85;;
66633;SDS011;53546;52.184;5.596;2023-02-14T13:30:05;4.93;;;3.55;;
66633;SDS011;53546;52.184;5.596;2023-02-14T13:32:42;7.95;;;3.30;;
66633;SDS011;53546;52.184;5.596;2023-02-14T13:35:14;4.05;;;3.30;;
66633;SDS011;53546;52.184;5.596;2023-02-14T13:37:42;4.28;;;3.25;;
66633;SDS011;53546;52.184;5.596;2023-02-14T13:40:18;6.00;;;3.67;;
66633;SDS011;53546;52.184;5.596;2023-02-14T13:50:33;5.90;;;3.25;;
66633;SDS011;53546;52.184;5.596;2023-02-14T13:53:01;6.22;;;3.60;;
66633;SDS011;53546;52.184;5.596;2023-02-14T13:55:29;5.18;;;3.50;;
66633;SDS011;53546;52.184;5.596;2023-02-14T13:58:02;4.10;;;3.40;;
66633;SDS011;53546;52.184;5.596;2023-02-14T14:00:51;6.20;;;3.65;;
66633;SDS011;53546;52.184;5.596;2023-02-14T14:11:01;3.92;;;3.30;;
66633;SDS011;53546;52.184;5.596;2023-02-14T14:19:02;5.25;;;3.72;;
66633;SDS011;53546;52.184;5.596;2023-02-14T14:22:01;4.13;;;3.03;;
66633;SDS011;53546;52.184;5.596;2023-02-14T14:24:32;5.82;;;3.90;;
66633;SDS011;53546;52.184;5.596;2023-02-14T14:26:59;3.80;;;3.30;;
66633;SDS011;53546;52.184;5.596;2023-02-14T14:31:54;7.07;;;3.63;;
66633;SDS011;53546;52.184;5.596;2023-02-14T14:34:20;7.85;;;3.53;;
66633;SDS011;53546;52.184;5.596;2023-02-14T14:37:07;4.35;;;3.45;;
66633;SDS011;53546;52.184;5.596;2023-02-14T14:39:50;4.28;;;3.40;;
66633;SDS011;53546;52.184;5.596;2023-02-14T14:42:16;5.47;;;3.50;;
66633;SDS011;53546;52.184;5.596;2023-02-14T14:44:46;6.00;;;3.75;;
66633;SDS011;53546;52.184;5.596;2023-02-14T14:47:18;4.95;;;3.45;;
66633;SDS011;53546;52.184;5.596;2023-02-14T14:49:45;5.47;;;3.42;;
66633;SDS011;53546;52.184;5.596;2023-02-14T14:52:16;4.75;;;3.22;;
66633;SDS011;53546;52.184;5.596;2023-02-14T14:54:57;5.10;;;3.35;;
66633;SDS011;53546;52.184;5.596;2023-02-14T14:57:23;5.55;;;3.50;;
66633;SDS011;53546;52.184;5.596;2023-02-14T14:59:49;4.70;;;3.22;;
66633;SDS011;53546;52.184;5.596;2023-02-14T15:02:33;5.20;;;3.35;;
66633;SDS011;53546;52.184;5.596;2023-02-14T15:05:10;4.28;;;3.20;;
66633;SDS011;53546;52.184;5.596;2023-02-14T15:07:43;4.07;;;3.40;;
66633;SDS011;53546;52.184;5.596;2023-02-14T15:10:22;5.55;;;3.17;;
66633;SDS011;53546;52.184;5.596;2023-02-14T15:12:49;4.30;;;3.35;;
66633;SDS011;53546;52.184;5.596;2023-02-14T15:15:34;5.47;;;3.42;;
66633;SDS011;53546;52.184;5.596;2023-02-14T15:18:03;4.10;;;3.35;;
66633;SDS011;53546;52.184;5.596;2023-02-14T15:20:30;3.60;;;3.25;;
66633;SDS011;53546;52.184;5.596;2023-02-14T15:22:55;4.65;;;3.30;;
66633;SDS011;53546;52.184;5.596;2023-02-14T15:25:31;5.10;;;3.20;;
66633;SDS011;53546;52.184;5.596;2023-02-14T15:27:57;6.05;;;3.40;;
66633;SDS011;53546;52.184;5.596;2023-02-14T15:32:51;3.67;;;3.00;;
66633;SDS011;53546;52.184;5.596;2023-02-14T15:35:20;4.22;;;3.22;;
66633;SDS011;53546;52.184;5.596;2023-02-14T15:37:50;5.63;;;3.15;;
66633;SDS011;53546;52.184;5.596;2023-02-14T15:40:17;3.85;;;3.17;;
66633;SDS011;53546;52.184;5.596;2023-02-14T15:42:46;5.35;;;3.42;;
66633;SDS011;53546;52.184;5.596;2023-02-14T15:47:37;6.25;;;3.58;;
66633;SDS011;53546;52.184;5.596;2023-02-14T15:50:07;6.40;;;3.28;;
66633;SDS011;53546;52.184;5.596;2023-02-14T15:52:40;5.03;;;3.15;;
66633;SDS011;53546;52.184;5.596;2023-02-14T15:55:09;5.28;;;3.20;;
66633;SDS011;53546;52.184;5.596;2023-02-14T15:57:35;5.20;;;3.13;;
66633;SDS011;53546;52.184;5.596;2023-02-14T16:00:04;7.30;;;3.20;;
66633;SDS011;53546;52.184;5.596;2023-02-14T16:02:36;3.85;;;2.90;;
66633;SDS011;53546;52.184;5.596;2023-02-14T16:05:16;4.82;;;2.80;;
66633;SDS011;53546;52.184;5.596;2023-02-14T16:07:56;3.72;;;2.78;;
66633;SDS011;53546;52.184;5.596;2023-02-14T16:10:35;4.93;;;2.50;;
66633;SDS011;53546;52.184;5.596;2023-02-14T16:15:37;3.80;;;2.80;;
66633;SDS011;53546;52.184;5.596;2023-02-14T16:18:18;2.90;;;2.60;;
66633;SDS011;53546;52.184;5.596;2023-02-14T16:21:09;3.65;;;2.55;;
66633;SDS011;53546;52.184;5.596;2023-02-14T16:23:35;5.28;;;2.40;;
66633;SDS011;53546;52.184;5.596;2023-02-14T16:26:01;3.42;;;2.88;;
66633;SDS011;53546;52.184;5.596;2023-02-14T16:28:28;4.60;;;2.50;;
66633;SDS011;53546;52.184;5.596;2023-02-14T16:30:55;3.83;;;2.75;;
66633;SDS011;53546;52.184;5.596;2023-02-14T16:33:25;3.28;;;2.38;;
66633;SDS011;53546;52.184;5.596;2023-02-14T16:35:52;3.08;;;2.47;;
66633;SDS011;53546;52.184;5.596;2023-02-14T16:38:18;6.25;;;2.95;;
66633;SDS011;53546;52.184;5.596;2023-02-14T16:40:48;5.97;;;2.70;;
66633;SDS011;53546;52.184;5.596;2023-02-14T16:43:16;3.75;;;2.67;;
66633;SDS011;53546;52.184;5.596;2023-02-14T16:45:43;4.55;;;3.17;;
66633;SDS011;53546;52.184;5.596;2023-02-14T16:48:08;7.43;;;2.90;;
66633;SDS011;53546;52.184;5.596;2023-02-14T16:50:35;4.15;;;2.88;;
66633;SDS011;53546;52.184;5.596;2023-02-14T16:53:01;3.85;;;2.72;;
66633;SDS011;53546;52.184;5.596;2023-02-14T16:55:29;5.78;;;3.13;;
66633;SDS011;53546;52.184;5.596;2023-02-14T16:57:54;4.25;;;2.83;;
66633;SDS011;53546;52.184;5.596;2023-02-14T17:00:20;3.58;;;2.97;;
66633;SDS011;53546;52.184;5.596;2023-02-14T17:02:46;6.00;;;2.97;;
66633;SDS011;53546;52.184;5.596;2023-02-14T17:05:12;5.30;;;2.95;;
66633;SDS011;53546;52.184;5.596;2023-02-14T17:07:38;4.95;;;2.75;;
66633;SDS011;53546;52.184;5.596;2023-02-14T17:10:07;7.00;;;3.30;;
66633;SDS011;53546;52.184;5.596;2023-02-14T17:12:36;4.93;;;3.55;;
66633;SDS011;53546;52.184;5.596;2023-02-14T17:15:06;5.63;;;3.53;;
66633;SDS011;53546;52.184;5.596;2023-02-14T17:17:34;4.82;;;3.28;;
66633;SDS011;53546;52.184;5.596;2023-02-14T17:20:00;3.78;;;3.10;;
66633;SDS011;53546;52.184;5.596;2023-02-14T17:22:27;5.93;;;3.83;;
66633;SDS011;53546;52.184;5.596;2023-02-14T17:24:53;5.72;;;4.20;;
66633;SDS011;53546;52.184;5.596;2023-02-14T17:27:18;5.32;;;3.78;;
66633;SDS011;53546;52.184;5.596;2023-02-14T17:29:43;8.15;;;4.55;;
66633;SDS011;53546;52.184;5.596;2023-02-14T17:32:10;5.18;;;4.20;;
66633;SDS011;53546;52.184;5.596;2023-02-14T17:34:36;8.55;;;4.13;;
66633;SDS011;53546;52.184;5.596;2023-02-14T17:37:02;8.75;;;5.30;;
66633;SDS011;53546;52.184;5.596;2023-02-14T17:39:27;8.10;;;4.80;;
66633;SDS011;53546;52.184;5.596;2023-02-14T17:41:53;6.15;;;4.55;;